Time;durP1;ratioP1;P1;durP2;ratioP2;P2;SDS_P1;SDS_P2;PMS_P1;PMS_P2;Temp;Humidity;BMP_temperature;BMP_pressure;BME280_temperature;BME280_humidity;BME280_pressure;Samples;Min_cycle;Max_cycle;Signal;HPM_P1;HPM_P2
2022/05/19 00:00:15;;;;;;;28.38;17.55;;;22.70;63.40;;;;;;5114461;28;20024;-68
2022/05/19 00:02:42;;;;;;;24.67;18.02;;;22.70;63.30;;;;;;5114423;28;20032;-68
2022/05/19 00:05:08;;;;;;;26.83;17.38;;;22.70;63.30;;;;;;5114448;28;20021;-67
2022/05/19 00:07:33;;;;;;;24.45;17.38;;;22.70;63.30;;;;;;5114375;28;20083;-68
2022/05/19 00:09:59;;;;;;;24.50;16.50;;;22.70;63.20;;;;;;5114332;28;20025;-68
2022/05/19 00:12:24;;;;;;;24.05;17.35;;;22.70;63.10;;;;;;5114244;28;20039;-68
2022/05/19 00:14:50;;;;;;;25.10;17.55;;;22.70;63.40;;;;;;5114205;28;20054;-68
2022/05/19 00:17:16;;;;;;;27.98;17.75;;;22.70;63.40;;;;;;5113228;28;20534;-68
2022/05/19 00:19:42;;;;;;;26.35;17.65;;;22.60;63.20;;;;;;5114148;28;20024;-68
2022/05/19 00:22:08;;;;;;;23.23;17.35;;;22.70;63.20;;;;;;5113602;28;20375;-68
2022/05/19 00:24:34;;;;;;;29.33;17.80;;;22.60;63.20;;;;;;5113926;28;20036;-68
2022/05/19 00:27:00;;;;;;;23.13;17.13;;;22.60;63.30;;;;;;5114051;28;20113;-68
2022/05/19 00:29:25;;;;;;;26.98;18.13;;;22.50;63.30;;;;;;5113941;28;20055;-68
2022/05/19 00:31:51;;;;;;;24.27;17.10;;;22.50;63.50;;;;;;5114071;28;20066;-68
2022/05/19 00:34:17;;;;;;;29.55;17.58;;;22.50;63.50;;;;;;5113846;28;20035;-68
2022/05/19 00:36:43;;;;;;;28.98;16.88;;;22.50;63.60;;;;;;5113824;28;20028;-68
2022/05/19 00:39:10;;;;;;;24.27;17.10;;;22.50;63.70;;;;;;5113795;28;20032;-68
2022/05/19 00:41:43;;;;;;;24.33;16.98;;;22.50;63.70;;;;;;5113714;28;20080;-68
2022/05/19 00:44:10;;;;;;;24.17;16.15;;;22.50;64.00;;;;;;5113766;28;20025;-68
2022/05/19 00:46:43;;;;;;;25.25;16.20;;;22.40;63.90;;;;;;5113854;28;20083;-68
2022/05/19 00:49:11;;;;;;;23.83;16.63;;;22.40;64.20;;;;;;5113730;28;20026;-68
2022/05/19 00:52:13;;;;;;;26.73;17.35;;;22.40;64.00;;;;;;5113616;28;20032;-68
2022/05/19 00:54:51;;;;;;;26.90;17.53;;;22.30;64.20;;;;;;5079533;28;20040;-68
2022/05/19 00:57:20;;;;;;;27.00;17.33;;;22.20;64.60;;;;;;5113645;28;20044;-68
2022/05/19 00:59:57;;;;;;;22.27;16.70;;;22.20;64.60;;;;;;5113541;28;20027;-68
2022/05/19 01:02:30;;;;;;;28.52;18.70;;;22.20;64.20;;;;;;5112559;28;20372;-68
2022/05/19 01:05:07;;;;;;;24.38;17.13;;;22.20;64.50;;;;;;5113482;28;20028;-68
2022/05/19 01:07:47;;;;;;;24.95;17.55;;;22.20;64.60;;;;;;5113603;28;20045;-68
2022/05/19 01:10:13;;;;;;;28.52;18.02;;;22.20;64.50;;;;;;5113585;28;20017;-68
2022/05/19 01:12:40;;;;;;;24.48;17.77;;;22.20;64.70;;;;;;5113392;28;20076;-68
2022/05/19 01:15:07;;;;;;;26.52;18.52;;;22.20;64.80;;;;;;5113414;28;20028;-68
2022/05/19 01:17:34;;;;;;;27.42;18.25;;;22.10;65.20;;;;;;5113385;28;20032;-68
2022/05/19 01:20:09;;;;;;;26.65;19.08;;;22.10;65.20;;;;;;5113306;28;20490;-68
2022/05/19 01:22:52;;;;;;;28.35;18.67;;;22.00;65.50;;;;;;5113366;28;20039;-68
2022/05/19 01:25:46;;;;;;;31.45;19.77;;;21.90;65.80;;;;;;5113327;28;20040;-68
2022/05/19 01:28:13;;;;;;;29.70;19.35;;;21.90;66.10;;;;;;5113329;28;20093;-68
2022/05/19 01:30:40;;;;;;;29.77;19.23;;;21.90;66.40;;;;;;5113227;28;20121;-68
2022/05/19 01:33:06;;;;;;;26.05;20.15;;;21.90;66.40;;;;;;5113198;28;20079;-68
2022/05/19 01:35:33;;;;;;;27.63;19.30;;;21.90;66.30;;;;;;5117053;28;20115;-68
2022/05/19 01:38:07;;;;;;;31.08;20.83;;;21.90;66.30;;;;;;5117332;28;20118;-68
2022/05/19 01:41:00;;;;;;;30.05;21.15;;;21.80;66.30;;;;;;5117233;28;20024;-68
2022/05/19 01:43:44;;;;;;;28.17;20.13;;;21.80;66.30;;;;;;5117185;28;20169;-68
2022/05/19 01:46:18;;;;;;;28.17;20.67;;;21.80;66.40;;;;;;5116040;28;20023;-68
2022/05/19 01:48:54;;;;;;;31.58;20.65;;;21.80;67.40;;;;;;5117114;28;20024;-68
2022/05/19 01:51:21;;;;;;;32.72;20.85;;;21.70;66.70;;;;;;5117164;28;20020;-68
2022/05/19 01:54:16;;;;;;;29.85;21.45;;;21.70;66.80;;;;;;5115920;28;20032;-68
2022/05/19 01:56:54;;;;;;;29.63;21.77;;;21.70;66.90;;;;;;5116940;28;20028;-68
2022/05/19 01:59:29;;;;;;;30.65;21.83;;;21.60;67.50;;;;;;5115806;28;20028;-68
2022/05/19 02:02:03;;;;;;;30.63;21.88;;;21.50;67.80;;;;;;5116780;28;20048;-68
2022/05/19 02:04:43;;;;;;;33.42;23.52;;;21.40;67.90;;;;;;5116774;28;20024;-68
2022/05/19 02:07:14;;;;;;;31.52;22.05;;;21.40;68.50;;;;;;5116678;28;20016;-68
2022/05/19 02:09:47;;;;;;;30.08;21.85;;;21.20;68.90;;;;;;5116667;28;20024;-68
2022/05/19 02:12:12;;;;;;;33.65;22.08;;;21.20;69.10;;;;;;5115618;28;20085;-68
2022/05/19 02:14:44;;;;;;;32.67;23.63;;;21.10;69.40;;;;;;5116518;28;20359;-68
2022/05/19 02:17:12;;;;;;;33.38;22.08;;;21.10;69.40;;;;;;5116566;28;20020;-68
2022/05/19 02:19:44;;;;;;;34.63;22.63;;;21.10;69.40;;;;;;5114977;28;20536;-67
2022/05/19 02:22:13;;;;;;;36.42;22.20;;;21.10;69.40;;;;;;5116361;28;20103;-68
2022/05/19 02:24:46;;;;;;;32.42;22.40;;;21.10;69.60;;;;;;5116196;28;20036;-68
2022/05/19 02:27:36;;;;;;;32.70;23.25;;;21.00;69.50;;;;;;5116383;28;20016;-68
2022/05/19 02:30:06;;;;;;;33.28;21.98;;;21.10;69.60;;;;;;5116280;28;20020;-68
2022/05/19 02:32:32;;;;;;;31.45;22.15;;;21.00;69.70;;;;;;5116287;28;20031;-68
2022/05/19 02:34:58;;;;;;;29.40;21.92;;;21.10;69.30;;;;;;5116149;28;20025;-68
2022/05/19 02:37:23;;;;;;;33.25;22.05;;;21.10;69.60;;;;;;5116091;28;20043;-68
2022/05/19 02:39:49;;;;;;;34.35;23.45;;;21.10;69.50;;;;;;5116052;28;20024;-68
2022/05/19 02:42:15;;;;;;;35.17;21.92;;;21.10;69.50;;;;;;5115952;28;20089;-68
2022/05/19 02:44:40;;;;;;;31.92;23.60;;;21.10;69.60;;;;;;5115642;28;20028;-68
2022/05/19 02:47:06;;;;;;;30.67;22.33;;;21.10;69.60;;;;;;5115967;28;20084;-68
2022/05/19 02:49:32;;;;;;;37.97;22.83;;;21.20;69.60;;;;;;5115930;28;20020;-68
2022/05/19 02:51:58;;;;;;;29.60;22.02;;;21.20;69.50;;;;;;5115872;28;20028;-68
2022/05/19 02:54:23;;;;;;;32.47;22.83;;;21.20;69.40;;;;;;5115815;28;20050;-68
2022/05/19 02:56:49;;;;;;;30.98;21.75;;;21.30;69.20;;;;;;5115739;28;20039;-68
2022/05/19 02:59:15;;;;;;;30.50;21.42;;;21.30;69.00;;;;;;5115720;28;20028;-67
2022/05/19 03:01:41;;;;;;;31.17;21.27;;;21.30;68.90;;;;;;5115600;28;20028;-68
2022/05/19 03:04:07;;;;;;;32.00;21.67;;;21.40;68.70;;;;;;5115618;28;20032;-68
2022/05/19 03:06:32;;;;;;;30.45;21.58;;;21.40;68.30;;;;;;5115618;28;20019;-68
2022/05/19 03:08:58;;;;;;;28.95;21.65;;;21.40;68.30;;;;;;5115617;28;20028;-67
2022/05/19 03:11:24;;;;;;;28.65;20.50;;;21.40;68.30;;;;;;5115475;28;20031;-68
2022/05/19 03:13:49;;;;;;;33.22;20.52;;;21.30;68.30;;;;;;5115483;28;20081;-68
2022/05/19 03:16:15;;;;;;;27.52;20.48;;;21.20;68.60;;;;;;5115361;28;20065;-68
2022/05/19 03:18:41;;;;;;;28.35;20.83;;;21.10;68.90;;;;;;5115350;28;20095;-68
2022/05/19 03:21:07;;;;;;;29.45;20.52;;;21.00;69.10;;;;;;5115211;28;20380;-68
2022/05/19 03:23:32;;;;;;;27.60;20.67;;;21.00;69.40;;;;;;5115014;28;20101;-68
2022/05/19 03:25:59;;;;;;;29.13;20.77;;;21.00;69.60;;;;;;5115151;28;20027;-68
2022/05/19 03:28:24;;;;;;;32.97;20.05;;;21.00;70.00;;;;;;5115095;28;20074;-68
2022/05/19 03:30:50;;;;;;;30.13;19.83;;;21.00;70.00;;;;;;5115052;28;20075;-68
2022/05/19 03:33:16;;;;;;;30.38;20.05;;;21.00;69.70;;;;;;5115002;28;20024;-68
2022/05/19 03:35:42;;;;;;;27.38;18.70;;;21.10;69.10;;;;;;5115068;28;20502;-68
2022/05/19 03:38:08;;;;;;;21.02;16.60;;;21.10;68.80;;;;;;5114986;28;20020;-68
2022/05/19 03:40:34;;;;;;;22.60;14.85;;;21.00;68.80;;;;;;5114843;28;20032;-68
2022/05/19 03:43:00;;;;;;;19.63;14.70;;;21.00;68.60;;;;;;5114859;28;20028;-68
2022/05/19 03:45:26;;;;;;;19.67;14.77;;;21.00;68.10;;;;;;5114824;28;20032;-68
2022/05/19 03:47:52;;;;;;;17.15;13.57;;;21.10;68.10;;;;;;5114699;28;20028;-68
2022/05/19 03:50:17;;;;;;;21.15;13.10;;;21.10;67.50;;;;;;5114671;28;20051;-68
2022/05/19 03:52:44;;;;;;;19.27;12.80;;;21.20;67.20;;;;;;5114651;28;20032;-68
2022/05/19 03:55:13;;;;;;;17.15;13.25;;;21.30;67.20;;;;;;5114622;28;20028;-68
2022/05/19 03:57:40;;;;;;;17.23;13.30;;;21.40;67.80;;;;;;5112825;28;20123;-68
2022/05/19 04:00:08;;;;;;;19.35;13.68;;;21.50;66.80;;;;;;5114563;28;20016;-68
2022/05/19 04:02:34;;;;;;;23.35;15.23;;;21.50;66.50;;;;;;5114444;28;20119;-68
2022/05/19 04:05:00;;;;;;;20.35;14.65;;;21.60;66.50;;;;;;5114417;28;20020;-68
2022/05/19 04:07:25;;;;;;;20.73;14.48;;;21.60;66.50;;;;;;5114402;28;20046;-68
2022/05/19 04:09:51;;;;;;;22.70;15.43;;;21.60;66.50;;;;;;5114325;28;20028;-68
2022/05/19 04:12:21;;;;;;;20.08;14.80;;;21.70;66.40;;;;;;5114291;28;20043;-68
2022/05/19 04:14:47;;;;;;;21.33;14.57;;;21.70;66.40;;;;;;5114272;28;20131;-68
2022/05/19 04:17:12;;;;;;;19.25;15.40;;;21.70;66.40;;;;;;5113217;28;20375;-68
2022/05/19 04:19:38;;;;;;;23.00;14.68;;;21.80;66.60;;;;;;5114120;28;20032;-68
2022/05/19 04:22:04;;;;;;;17.25;14.88;;;21.70;66.50;;;;;;5114070;28;20043;-68
2022/05/19 04:24:29;;;;;;;19.27;14.88;;;21.70;66.90;;;;;;5113838;28;20055;-69
2022/05/19 04:26:55;;;;;;;21.65;15.63;;;21.70;67.10;;;;;;5114023;28;20024;-69
2022/05/19 04:29:21;;;;;;;22.48;16.10;;;21.80;67.40;;;;;;5113883;28;20024;-69
2022/05/19 04:31:46;;;;;;;20.88;15.32;;;21.80;67.00;;;;;;5113964;28;20081;-69
2022/05/19 04:34:12;;;;;;;21.98;15.65;;;21.70;67.00;;;;;;5113903;28;20043;-68
2022/05/19 04:36:37;;;;;;;21.08;15.38;;;21.70;67.10;;;;;;5113807;28;20032;-69
2022/05/19 04:39:03;;;;;;;20.13;15.82;;;21.70;67.30;;;;;;5113821;28;20036;-69
2022/05/19 04:41:29;;;;;;;21.13;16.25;;;21.70;67.50;;;;;;5113687;28;20024;-68
2022/05/19 04:43:55;;;;;;;24.38;16.50;;;21.80;67.80;;;;;;5112937;28;20039;-68
2022/05/19 04:46:21;;;;;;;22.00;16.40;;;21.70;67.70;;;;;;5113755;28;20079;-69
2022/05/19 04:48:46;;;;;;;19.80;16.42;;;21.70;67.70;;;;;;5113668;28;20032;-69
2022/05/19 04:51:13;;;;;;;21.52;16.80;;;21.70;68.10;;;;;;5113634;28;20028;-68
2022/05/19 04:53:38;;;;;;;24.02;16.63;;;21.60;68.40;;;;;;5113691;28;20028;-68
2022/05/19 04:56:04;;;;;;;22.60;16.75;;;21.60;68.80;;;;;;5113616;28;20059;-68
2022/05/19 04:58:30;;;;;;;21.13;16.80;;;21.60;69.10;;;;;;5113536;28;20056;-68
2022/05/19 05:00:55;;;;;;;22.58;16.00;;;21.60;69.60;;;;;;5113459;28;20028;-69
2022/05/19 05:03:21;;;;;;;20.88;16.48;;;21.60;69.80;;;;;;5113642;28;20087;-68
2022/05/19 05:05:47;;;;;;;22.17;15.80;;;21.70;69.80;;;;;;5113504;28;20024;-68
2022/05/19 05:08:13;;;;;;;21.45;16.95;;;21.70;69.60;;;;;;5113401;28;20089;-69
2022/05/19 05:10:39;;;;;;;23.30;16.75;;;21.70;69.90;;;;;;5113419;28;20047;-68
2022/05/19 05:13:10;;;;;;;24.23;16.27;;;21.70;70.20;;;;;;5113371;28;20054;-68
2022/05/19 05:15:36;;;;;;;18.85;14.48;;;21.60;70.40;;;;;;5113548;28;20031;-69
2022/05/19 05:18:04;;;;;;;19.30;14.60;;;21.60;70.50;;;;;;5113413;28;20053;-68
2022/05/19 05:20:30;;;;;;;21.48;15.93;;;21.70;70.40;;;;;;5113215;28;20088;-69
2022/05/19 05:22:56;;;;;;;21.05;14.77;;;21.70;70.60;;;;;;5113099;28;20031;-69
2022/05/19 05:25:22;;;;;;;19.02;14.43;;;21.80;70.60;;;;;;5113378;28;20031;-68
2022/05/19 05:27:48;;;;;;;16.42;13.73;;;21.80;70.40;;;;;;5113124;28;20028;-68
2022/05/19 05:30:15;;;;;;;17.30;13.32;;;21.80;69.70;;;;;;5113277;28;20025;-68
2022/05/19 05:32:41;;;;;;;15.43;12.38;;;21.90;69.40;;;;;;5113220;28;20056;-68
2022/05/19 05:35:08;;;;;;;14.15;12.52;;;21.80;69.20;;;;;;5113310;28;20043;-69
2022/05/19 05:37:34;;;;;;;18.02;12.25;;;21.80;69.50;;;;;;5113189;28;20020;-68
2022/05/19 05:40:01;;;;;;;14.73;10.93;;;21.90;69.40;;;;;;5113101;28;20036;-68
2022/05/19 05:42:26;;;;;;;16.00;11.15;;;21.90;69.10;;;;;;5112988;28;20024;-68
2022/05/19 05:44:52;;;;;;;14.27;10.20;;;21.90;68.90;;;;;;5113059;28;20016;-68
2022/05/19 05:47:18;;;;;;;12.98;8.93;;;22.00;68.80;;;;;;5113231;28;20374;-69
2022/05/19 05:49:43;;;;;;;12.68;8.32;;;22.00;68.70;;;;;;5113040;28;20032;-68
2022/05/19 05:52:09;;;;;;;10.70;8.63;;;22.00;68.60;;;;;;5112906;28;20032;-69
2022/05/19 05:54:34;;;;;;;12.73;8.35;;;22.00;68.30;;;;;;5112996;28;20126;-69
2022/05/19 05:57:01;;;;;;;10.55;9.45;;;22.00;68.40;;;;;;5112978;28;20032;-69
2022/05/19 05:59:27;;;;;;;14.85;10.80;;;22.00;69.20;;;;;;5113057;28;20089;-69
2022/05/19 06:01:52;;;;;;;11.30;10.05;;;22.00;68.60;;;;;;5112888;28;20088;-68
2022/05/19 06:04:18;;;;;;;11.63;8.18;;;22.00;68.60;;;;;;5112934;28;20028;-68
2022/05/19 06:06:46;;;;;;;10.05;7.50;;;22.00;68.40;;;;;;5112847;28;20020;-68
2022/05/19 06:09:12;;;;;;;9.82;6.40;;;22.00;68.50;;;;;;5112831;28;20466;-68
2022/05/19 06:11:39;;;;;;;8.48;5.97;;;21.90;67.90;;;;;;5112846;28;20107;-68
2022/05/19 06:14:04;;;;;;;8.68;5.95;;;21.90;67.30;;;;;;5111775;28;20028;-69
2022/05/19 06:16:30;;;;;;;9.90;5.88;;;21.70;67.80;;;;;;5112984;28;20034;-68
2022/05/19 06:18:56;;;;;;;11.90;5.93;;;21.50;68.30;;;;;;5112838;28;20035;-68
2022/05/19 06:21:21;;;;;;;12.15;6.93;;;21.40;68.50;;;;;;5114783;28;20036;-68
2022/05/19 06:23:47;;;;;;;10.05;6.55;;;21.40;70.40;;;;;;5116191;28;20111;-69
2022/05/19 06:26:13;;;;;;;10.10;7.90;;;21.30;69.10;;;;;;5116522;28;20028;-69
2022/05/19 06:28:38;;;;;;;11.77;8.05;;;21.20;70.40;;;;;;5116255;28;20020;-69
2022/05/19 06:31:05;;;;;;;11.60;7.50;;;21.10;71.00;;;;;;5115313;28;20032;-69
2022/05/19 06:33:33;;;;;;;9.30;6.60;;;21.00;71.00;;;;;;5116241;28;20020;-69
2022/05/19 06:35:59;;;;;;;9.10;6.70;;;21.10;71.10;;;;;;5116188;28;20016;-68
2022/05/19 06:38:25;;;;;;;9.50;6.47;;;21.10;72.00;;;;;;5116119;28;20061;-69
2022/05/19 06:40:50;;;;;;;9.00;6.82;;;21.10;71.40;;;;;;5115994;28;20039;-68
2022/05/19 06:43:19;;;;;;;10.77;7.03;;;21.20;72.20;;;;;;5116072;28;20028;-68
2022/05/19 06:45:44;;;;;;;8.52;7.00;;;21.20;72.50;;;;;;5116015;28;20020;-69
2022/05/19 06:48:11;;;;;;;8.13;6.53;;;21.10;72.90;;;;;;5115908;28;20111;-69
2022/05/19 06:50:37;;;;;;;8.73;6.55;;;21.00;74.10;;;;;;5115902;28;20078;-69
2022/05/19 06:53:03;;;;;;;8.55;6.80;;;20.90;74.00;;;;;;5115839;28;20043;-69
2022/05/19 06:55:34;;;;;;;10.13;7.20;;;20.90;74.00;;;;;;5115804;28;20020;-68
2022/05/19 06:58:00;;;;;;;9.55;7.00;;;20.90;74.40;;;;;;5114780;28;20046;-69
2022/05/19 07:00:27;;;;;;;9.90;7.00;;;21.00;74.60;;;;;;5115627;28;20431;-69
2022/05/19 07:02:56;;;;;;;9.10;6.95;;;21.10;74.60;;;;;;5115700;28;20020;-68
2022/05/19 07:05:26;;;;;;;9.68;6.65;;;21.10;74.70;;;;;;5115610;28;20024;-68
2022/05/19 07:07:52;;;;;;;11.43;7.38;;;20.90;74.80;;;;;;5115779;28;20016;-68
2022/05/19 07:10:21;;;;;;;9.68;6.82;;;20.80;74.60;;;;;;5115530;28;20089;-68
2022/05/19 07:12:46;;;;;;;9.85;7.50;;;20.80;74.90;;;;;;5115518;28;20016;-68
2022/05/19 07:15:14;;;;;;;12.95;7.57;;;20.90;75.60;;;;;;5115421;28;20043;-68
2022/05/19 07:17:40;;;;;;;10.05;6.60;;;20.90;76.00;;;;;;5115407;28;20024;-68
2022/05/19 07:22:52;;;;;;;9.02;7.22;;;21.00;74.90;;;;;;5115267;28;20058;-70
2022/05/19 07:25:18;;;;;;;12.63;7.97;;;21.10;75.00;;;;;;5115284;28;20048;-69
2022/05/19 07:27:44;;;;;;;11.52;7.90;;;21.10;75.60;;;;;;5115153;28;20069;-69
2022/05/19 07:30:11;;;;;;;10.23;8.13;;;21.20;75.60;;;;;;5115139;28;20020;-69
2022/05/19 07:32:37;;;;;;;11.32;9.23;;;21.20;75.50;;;;;;5113019;28;20065;-69
2022/05/19 07:35:05;;;;;;;12.88;8.98;;;21.30;75.60;;;;;;5115029;28;20098;-69
2022/05/19 07:37:31;;;;;;;13.70;9.35;;;21.40;75.00;;;;;;5115015;28;20043;-69
2022/05/19 07:39:57;;;;;;;15.10;9.52;;;21.40;75.20;;;;;;5113993;28;20498;-69
2022/05/19 07:42:24;;;;;;;14.80;9.57;;;21.40;75.50;;;;;;5114824;28;20031;-70
2022/05/19 07:44:50;;;;;;;15.75;10.00;;;21.50;75.50;;;;;;5114983;28;20023;-69
2022/05/19 07:47:16;;;;;;;13.95;9.73;;;21.50;75.60;;;;;;5113838;28;20058;-70
2022/05/19 07:49:42;;;;;;;13.20;10.45;;;21.60;75.60;;;;;;5114746;28;20024;-69
2022/05/19 07:52:08;;;;;;;13.15;10.77;;;21.70;75.80;;;;;;5114680;28;20043;-69
2022/05/19 07:54:34;;;;;;;14.63;11.45;;;21.60;74.60;;;;;;5114678;28;20091;-69
2022/05/19 07:57:00;;;;;;;13.82;11.07;;;21.60;75.00;;;;;;5114492;28;20028;-70
2022/05/19 07:59:26;;;;;;;16.58;12.10;;;21.50;75.10;;;;;;5114612;28;20024;-70
2022/05/19 08:01:53;;;;;;;16.50;11.15;;;21.50;75.90;;;;;;5113428;28;20040;-69
2022/05/19 08:04:21;;;;;;;14.00;11.35;;;21.60;75.20;;;;;;5114456;28;20020;-70
2022/05/19 08:06:47;;;;;;;15.25;11.60;;;21.60;75.20;;;;;;5114437;28;20024;-69
2022/05/19 08:11:56;;;;;;;15.32;11.82;;;21.70;75.00;;;;;;5114357;28;20039;-70
2022/05/19 08:17:08;;;;;;;14.90;11.90;;;21.80;74.50;;;;;;5114294;28;20100;-70
2022/05/19 08:19:34;;;;;;;16.13;11.90;;;21.90;74.90;;;;;;5114229;28;20020;-70
2022/05/19 08:22:00;;;;;;;15.15;10.57;;;22.00;75.00;;;;;;5114067;28;20043;-70
2022/05/19 08:24:26;;;;;;;13.48;10.02;;;22.00;74.40;;;;;;5113909;28;20071;-70
2022/05/19 08:26:52;;;;;;;15.00;10.13;;;22.10;73.40;;;;;;5114064;28;20035;-70
2022/05/19 08:29:19;;;;;;;10.45;8.57;;;22.20;73.20;;;;;;5113939;28;20467;-70
2022/05/19 08:31:45;;;;;;;15.60;9.57;;;22.30;71.50;;;;;;5113994;28;20028;-70
2022/05/19 08:34:13;;;;;;;10.95;8.90;;;22.50;71.20;;;;;;5113947;28;20028;-69
2022/05/19 08:36:40;;;;;;;14.23;9.10;;;22.60;69.00;;;;;;5113957;28;20035;-70
2022/05/19 08:39:05;;;;;;;13.07;9.63;;;22.70;69.00;;;;;;5113962;28;20088;-69
2022/05/19 08:41:36;;;;;;;12.07;8.32;;;22.80;70.20;;;;;;5112728;28;20036;-69
2022/05/19 08:44:06;;;;;;;10.05;7.70;;;23.00;68.30;;;;;;5113545;28;20027;-69
2022/05/19 08:46:46;;;;;;;9.00;6.97;;;23.00;67.30;;;;;;5113892;28;20016;-69
2022/05/19 08:49:22;;;;;;;13.45;7.70;;;23.20;66.20;;;;;;5113858;28;20016;-69
2022/05/19 08:51:56;;;;;;;10.15;7.63;;;23.30;66.60;;;;;;5113923;28;20024;-69
2022/05/19 08:54:24;;;;;;;12.80;8.43;;;23.40;67.40;;;;;;5113788;28;20111;-69
2022/05/19 08:57:05;;;;;;;10.82;7.57;;;23.50;67.40;;;;;;5113585;28;20028;-69
2022/05/19 08:59:51;;;;;;;8.38;6.70;;;23.60;66.70;;;;;;5113641;28;20079;-69
2022/05/19 09:02:27;;;;;;;8.57;6.78;;;23.70;65.90;;;;;;5113611;28;20028;-69
2022/05/19 09:05:26;;;;;;;7.72;6.93;;;23.80;62.50;;;;;;5113545;28;20430;-69
2022/05/19 09:08:24;;;;;;;7.15;6.45;;;23.90;62.70;;;;;;5113409;28;20025;-69
2022/05/19 09:10:56;;;;;;;11.02;7.10;;;24.00;62.70;;;;;;5112377;28;20027;-69
2022/05/19 09:13:35;;;;;;;8.70;6.35;;;24.10;61.10;;;;;;5113455;28;20089;-69
2022/05/19 09:16:11;;;;;;;8.50;5.82;;;24.20;60.70;;;;;;5113453;28;20032;-68
2022/05/19 09:18:39;;;;;;;7.22;5.45;;;24.30;62.00;;;;;;5113421;28;20048;-69
2022/05/19 09:21:05;;;;;;;12.98;5.70;;;24.30;60.50;;;;;;5113268;28;20024;-69
2022/05/19 09:23:36;;;;;;;9.40;5.38;;;24.40;60.50;;;;;;5113133;28;20069;-69
2022/05/19 09:26:12;;;;;;;9.43;5.75;;;24.50;59.30;;;;;;5113360;28;20028;-69
2022/05/19 09:28:37;;;;;;;6.85;5.55;;;24.70;59.00;;;;;;5113219;28;20028;-69
2022/05/19 09:31:03;;;;;;;8.52;5.47;;;24.70;58.80;;;;;;5113227;28;20038;-69
2022/05/19 09:33:41;;;;;;;7.07;5.75;;;24.70;59.00;;;;;;5113326;28;20028;-69
2022/05/19 09:36:12;;;;;;;9.75;6.07;;;24.80;57.40;;;;;;5113391;28;20028;-69
2022/05/19 09:38:46;;;;;;;12.30;6.03;;;24.80;57.80;;;;;;5113368;28;20024;-69
2022/05/19 09:41:28;;;;;;;10.00;5.50;;;24.80;57.30;;;;;;5112101;28;20039;-69
2022/05/19 09:43:56;;;;;;;7.10;5.28;;;24.90;59.10;;;;;;5113087;28;20514;-69
2022/05/19 09:46:22;;;;;;;6.72;5.05;;;24.90;58.60;;;;;;5113119;28;20024;-69
2022/05/19 09:48:51;;;;;;;7.43;5.18;;;25.00;57.80;;;;;;5113115;28;20035;-69
2022/05/19 09:51:19;;;;;;;7.15;5.57;;;25.10;58.20;;;;;;5113067;28;20027;-69
2022/05/19 09:53:52;;;;;;;6.90;6.05;;;25.20;57.40;;;;;;5113060;28;20024;-69
2022/05/19 09:56:22;;;;;;;8.52;5.80;;;25.30;56.10;;;;;;5116325;28;20039;-69
2022/05/19 09:58:51;;;;;;;7.75;5.65;;;25.30;57.80;;;;;;5116922;28;20076;-69
2022/05/19 10:01:32;;;;;;;9.80;5.80;;;25.40;57.80;;;;;;5116847;28;20035;-69
2022/05/19 10:04:01;;;;;;;10.45;5.57;;;25.50;55.50;;;;;;5116966;28;20044;-69
2022/05/19 10:06:46;;;;;;;8.02;5.00;;;25.60;56.10;;;;;;5116793;28;20019;-69
2022/05/19 10:09:17;;;;;;;11.90;5.50;;;25.70;56.10;;;;;;5115703;28;20029;-69
2022/05/19 10:11:54;;;;;;;9.82;5.90;;;25.70;56.30;;;;;;5116749;28;20050;-69
2022/05/19 10:14:31;;;;;;;8.73;5.38;;;25.80;56.70;;;;;;5116655;28;20021;-70
2022/05/19 10:17:26;;;;;;;8.43;5.85;;;25.80;57.20;;;;;;5116689;28;20024;-69
2022/05/19 10:20:00;;;;;;;10.18;6.40;;;25.90;55.80;;;;;;5116593;28;20053;-68
2022/05/19 10:22:29;;;;;;;7.47;5.72;;;25.90;55.50;;;;;;5116568;28;20017;-69
2022/05/19 10:24:54;;;;;;;11.40;5.95;;;26.00;57.20;;;;;;5116273;28;20066;-69
2022/05/19 10:31:20;;;;;;;9.35;5.80;;;26.20;52.60;;;;;;5116026;28;20128;-69
2022/05/19 10:34:11;;;;;;;5.88;5.20;;;26.30;52.40;;;;;;5116518;28;20023;-69
2022/05/19 10:37:18;;;;;;;5.38;4.15;;;26.30;51.20;;;;;;5116419;28;20024;-70
2022/05/19 10:40:18;;;;;;;8.00;4.30;;;26.40;51.90;;;;;;5034035;28;20026;-69
2022/05/19 10:43:08;;;;;;;4.93;3.90;;;26.30;49.90;;;;;;5116167;28;20035;-69
2022/05/19 10:45:39;;;;;;;4.53;3.83;;;26.30;50.10;;;;;;5116192;28;20035;-70
2022/05/19 10:48:08;;;;;;;7.67;4.60;;;26.40;50.80;;;;;;5116119;28;20017;-69
2022/05/19 10:50:36;;;;;;;9.82;4.53;;;26.40;50.80;;;;;;5116022;28;20024;-69
2022/05/19 10:53:22;;;;;;;7.55;4.80;;;26.40;50.00;;;;;;5115894;28;20023;-69
2022/05/19 10:56:06;;;;;;;6.47;4.50;;;26.40;48.00;;;;;;5115990;28;20028;-69
2022/05/19 10:58:48;;;;;;;7.50;4.82;;;26.50;49.30;;;;;;5115824;28;20016;-69
2022/05/19 11:02:13;;;;;;;8.02;4.85;;;26.60;49.80;;;;;;5114715;28;20051;-69
2022/05/19 11:05:20;;;;;;;12.70;5.18;;;26.60;49.20;;;;;;5059740;28;20037;-70
2022/05/19 11:07:58;;;;;;;7.82;4.97;;;26.60;50.70;;;;;;5098377;28;20032;-69
2022/05/19 11:10:49;;;;;;;7.57;4.75;;;26.60;51.90;;;;;;5115654;28;20034;-69
2022/05/19 11:13:30;;;;;;;8.13;4.72;;;26.60;50.10;;;;;;5077402;28;20032;-69
2022/05/19 11:16:21;;;;;;;7.15;5.20;;;26.60;49.30;;;;;;5115611;28;20024;-69
2022/05/19 11:19:03;;;;;;;6.25;4.60;;;26.60;49.10;;;;;;5115558;28;20022;-69
2022/05/19 11:21:49;;;;;;;7.90;5.30;;;26.60;49.80;;;;;;5115248;28;20024;-69
2022/05/19 11:26:23;;;;;;;19.85;7.07;;;26.60;50.60;;;;;;5115036;28;20048;-69
2022/05/19 11:27:33;;;;;;;7.90;5.47;;;26.60;50.20;;;;;;5115156;28;20028;-69
2022/05/19 11:30:03;;;;;;;6.28;5.00;;;26.50;49.20;;;;;;5115329;28;20024;-69
2022/05/19 11:32:33;;;;;;;9.68;4.75;;;26.50;50.60;;;;;;5115288;28;20078;-69
2022/05/19 11:35:28;;;;;;;7.03;4.60;;;26.50;50.30;;;;;;5115131;28;20024;-69
2022/05/19 11:38:12;;;;;;;7.88;5.20;;;26.50;51.30;;;;;;5110897;28;20051;-69
2022/05/19 11:41:00;;;;;;;10.82;4.70;;;26.50;50.50;;;;;;5114054;28;20038;-69
2022/05/19 11:43:35;;;;;;;7.55;4.65;;;26.50;50.90;;;;;;5115121;28;20016;-69
2022/05/19 11:46:07;;;;;;;12.20;4.85;;;26.40;50.40;;;;;;5114986;28;20020;-69
2022/05/19 11:57:42;;;;;;;7.30;5.15;;;26.20;53.00;;;;;;5114897;28;20078;-69
2022/05/19 12:00:13;;;;;;;8.50;5.53;;;26.20;54.10;;;;;;5114772;28;20073;-68
2022/05/19 12:02:50;;;;;;;11.57;5.50;;;26.20;55.40;;;;;;5114550;28;20024;-69
2022/05/19 12:05:28;;;;;;;10.07;5.60;;;26.10;55.90;;;;;;5113673;28;20028;-68
2022/05/19 12:08:06;;;;;;;17.92;3.20;;;26.00;55.80;;;;;;5114559;28;20016;-67
2022/05/19 12:10:37;;;;;;;17.65;3.20;;;25.30;58.30;;;;;;5114436;28;20012;-70
2022/05/19 12:13:05;;;;;;;8.25;1.83;;;23.90;64.40;;;;;;5114447;28;20058;-70
2022/05/19 12:15:34;;;;;;;6.20;1.50;;;23.00;66.30;;;;;;5114322;28;20019;-70
2022/05/19 12:18:10;;;;;;;5.15;1.15;;;22.30;68.80;;;;;;5113696;28;20075;-69
2022/05/19 12:20:50;;;;;;;8.15;1.58;;;21.80;69.30;;;;;;5114179;28;20020;-70
2022/05/19 12:23:18;;;;;;;7.68;1.30;;;21.60;71.00;;;;;;5114204;28;20062;-71
2022/05/19 12:25:48;;;;;;;4.03;1.35;;;21.40;71.60;;;;;;5114112;28;20051;-69
2022/05/19 12:28:13;;;;;;;3.58;1.40;;;21.20;71.40;;;;;;5114130;28;20087;-70
2022/05/19 12:33:37;;;;;;;2.97;1.35;;;20.90;71.90;;;;;;5114083;28;20161;-70
2022/05/19 12:36:15;;;;;;;3.92;1.80;;;20.80;72.30;;;;;;5113900;28;20054;-69
2022/05/19 12:38:43;;;;;;;4.38;1.58;;;20.70;73.20;;;;;;5114101;28;20099;-69
2022/05/19 12:41:29;;;;;;;3.85;1.70;;;20.70;73.50;;;;;;5113798;28;20020;-69
2022/05/19 12:43:58;;;;;;;4.07;1.70;;;20.80;73.20;;;;;;5113868;28;20038;-69
2022/05/19 12:46:38;;;;;;;3.83;1.73;;;20.80;73.10;;;;;;5113883;28;20027;-69
2022/05/19 12:49:19;;;;;;;2.20;1.50;;;20.80;73.60;;;;;;5113968;28;20024;-68
2022/05/19 12:51:50;;;;;;;2.35;1.40;;;20.80;73.30;;;;;;5113771;28;20020;-68
2022/05/19 12:54:17;;;;;;;4.30;1.42;;;20.70;73.20;;;;;;5112939;28;20028;-69
2022/05/19 12:56:45;;;;;;;2.58;1.27;;;20.70;73.10;;;;;;5112764;28;20035;-69
2022/05/19 12:59:21;;;;;;;3.40;1.42;;;20.70;74.00;;;;;;5112622;28;20024;-68
2022/05/19 13:01:48;;;;;;;2.88;1.17;;;20.70;73.00;;;;;;5112545;28;20028;-69
2022/05/19 13:04:29;;;;;;;4.10;1.35;;;20.70;73.20;;;;;;5113613;28;20050;-68
2022/05/19 13:07:11;;;;;;;3.70;1.50;;;20.70;73.70;;;;;;5113716;28;20382;-69
2022/05/19 13:09:37;;;;;;;1.45;1.08;;;20.70;73.40;;;;;;5113735;28;20509;-69
2022/05/19 13:12:18;;;;;;;3.78;1.30;;;20.80;73.60;;;;;;5113460;28;20025;-69
2022/05/19 13:14:50;;;;;;;2.35;1.67;;;20.80;73.30;;;;;;5113496;28;20031;-69
2022/05/19 13:17:33;;;;;;;3.35;1.80;;;20.80;74.20;;;;;;5113568;28;20020;-68